sensor_id;sensor_type;location;lat;lon;timestamp;temperature;humidity
4002;DHT22;2015;48.670;9.060;2023-03-20T00:02:21;8.20;99.90
4002;DHT22;2015;48.670;9.060;2023-03-20T00:04:53;8.20;99.90
4002;DHT22;2015;48.670;9.060;2023-03-20T00:07:25;8.20;99.90
4002;DHT22;2015;48.670;9.060;2023-03-20T00:09:58;8.20;99.90
4002;DHT22;2015;48.670;9.060;2023-03-20T00:12:30;8.10;99.90
4002;DHT22;2015;48.670;9.060;2023-03-20T00:15:04;8.10;99.90
4002;DHT22;2015;48.670;9.060;2023-03-20T00:17:37;8.10;99.90
4002;DHT22;2015;48.670;9.060;2023-03-20T00:20:13;8.10;99.90
4002;DHT22;2015;48.670;9.060;2023-03-20T00:22:46;8.10;99.90
4002;DHT22;2015;48.670;9.060;2023-03-20T00:25:20;8.10;99.90
4002;DHT22;2015;48.670;9.060;2023-03-20T00:27:52;8.10;99.90
4002;DHT22;2015;48.670;9.060;2023-03-20T00:30:28;8.10;99.90
4002;DHT22;2015;48.670;9.060;2023-03-20T00:33:01;8.10;99.90
4002;DHT22;2015;48.670;9.060;2023-03-20T00:35:33;8.10;99.90
4002;DHT22;2015;48.670;9.060;2023-03-20T00:38:05;8.10;99.90
4002;DHT22;2015;48.670;9.060;2023-03-20T00:40:38;8.20;99.90
4002;DHT22;2015;48.670;9.060;2023-03-20T00:43:12;8.30;99.90
4002;DHT22;2015;48.670;9.060;2023-03-20T00:45:44;8.30;99.90
4002;DHT22;2015;48.670;9.060;2023-03-20T00:48:16;8.40;99.90
4002;DHT22;2015;48.670;9.060;2023-03-20T00:50:48;8.30;99.90
4002;DHT22;2015;48.670;9.060;2023-03-20T00:53:20;8.30;99.90
4002;DHT22;2015;48.670;9.060;2023-03-20T00:55:51;8.30;99.90
4002;DHT22;2015;48.670;9.060;2023-03-20T00:58:23;8.30;99.90
4002;DHT22;2015;48.670;9.060;2023-03-20T01:00:56;8.40;99.90
4002;DHT22;2015;48.670;9.060;2023-03-20T01:03:28;8.50;99.90
4002;DHT22;2015;48.670;9.060;2023-03-20T01:06:00;8.50;99.90
4002;DHT22;2015;48.670;9.060;2023-03-20T01:08:32;8.60;99.90
4002;DHT22;2015;48.670;9.060;2023-03-20T01:11:04;8.60;99.90
4002;DHT22;2015;48.670;9.060;2023-03-20T01:13:37;8.50;99.90
4002;DHT22;2015;48.670;9.060;2023-03-20T01:16:35;8.40;99.90
4002;DHT22;2015;48.670;9.060;2023-03-20T01:19:11;8.50;99.90
4002;DHT22;2015;48.670;9.060;2023-03-20T01:21:44;8.50;99.90
4002;DHT22;2015;48.670;9.060;2023-03-20T01:24:16;8.50;99.90
4002;DHT22;2015;48.670;9.060;2023-03-20T01:26:48;8.50;99.90
4002;DHT22;2015;48.670;9.060;2023-03-20T01:29:24;8.60;99.90
4002;DHT22;2015;48.670;9.060;2023-03-20T01:31:56;8.60;99.90
4002;DHT22;2015;48.670;9.060;2023-03-20T01:34:28;8.60;99.90
4002;DHT22;2015;48.670;9.060;2023-03-20T01:37:00;8.60;99.90
4002;DHT22;2015;48.670;9.060;2023-03-20T01:39:34;8.50;99.90
4002;DHT22;2015;48.670;9.060;2023-03-20T01:42:06;8.50;99.90
4002;DHT22;2015;48.670;9.060;2023-03-20T01:44:38;8.40;99.90
4002;DHT22;2015;48.670;9.060;2023-03-20T01:47:22;8.30;99.90
4002;DHT22;2015;48.670;9.060;2023-03-20T01:52:54;8.20;99.90
4002;DHT22;2015;48.670;9.060;2023-03-20T01:55:28;8.10;99.90
4002;DHT22;2015;48.670;9.060;2023-03-20T01:58:04;8.00;99.90
4002;DHT22;2015;48.670;9.060;2023-03-20T02:00:38;8.00;99.90
4002;DHT22;2015;48.670;9.060;2023-03-20T02:03:10;8.00;99.90
4002;DHT22;2015;48.670;9.060;2023-03-20T02:05:43;8.10;99.90
4002;DHT22;2015;48.670;9.060;2023-03-20T02:08:31;8.10;99.90
4002;DHT22;2015;48.670;9.060;2023-03-20T02:11:06;8.10;99.90
4002;DHT22;2015;48.670;9.060;2023-03-20T02:13:38;8.10;99.90
4002;DHT22;2015;48.670;9.060;2023-03-20T02:16:13;8.10;99.90
4002;DHT22;2015;48.670;9.060;2023-03-20T02:18:48;8.10;99.90
4002;DHT22;2015;48.670;9.060;2023-03-20T02:27:19;8.10;99.90
4002;DHT22;2015;48.670;9.060;2023-03-20T02:30:17;8.20;99.90
4002;DHT22;2015;48.670;9.060;2023-03-20T02:33:07;8.30;99.90
4002;DHT22;2015;48.670;9.060;2023-03-20T02:38:57;8.40;99.90
4002;DHT22;2015;48.670;9.060;2023-03-20T02:47:01;8.20;99.90
4002;DHT22;2015;48.670;9.060;2023-03-20T02:52:38;8.10;99.90
4002;DHT22;2015;48.670;9.060;2023-03-20T02:55:19;8.10;99.90
4002;DHT22;2015;48.670;9.060;2023-03-20T02:58:13;8.10;99.90
4002;DHT22;2015;48.670;9.060;2023-03-20T03:01:12;8.10;99.90
4002;DHT22;2015;48.670;9.060;2023-03-20T03:03:50;8.00;99.90
4002;DHT22;2015;48.670;9.060;2023-03-20T03:06:26;8.00;99.90
4002;DHT22;2015;48.670;9.060;2023-03-20T03:09:13;8.00;99.90
4002;DHT22;2015;48.670;9.060;2023-03-20T03:12:33;8.00;99.90
4002;DHT22;2015;48.670;9.060;2023-03-20T03:14:47;8.00;99.90
4002;DHT22;2015;48.670;9.060;2023-03-20T03:17:22;7.90;99.90
4002;DHT22;2015;48.670;9.060;2023-03-20T03:20:00;8.00;99.90
4002;DHT22;2015;48.670;9.060;2023-03-20T03:22:34;8.00;99.90
4002;DHT22;2015;48.670;9.060;2023-03-20T03:25:09;8.00;99.90
4002;DHT22;2015;48.670;9.060;2023-03-20T03:27:46;8.00;99.90
4002;DHT22;2015;48.670;9.060;2023-03-20T03:30:25;8.00;99.90
4002;DHT22;2015;48.670;9.060;2023-03-20T03:33:23;8.00;99.90
4002;DHT22;2015;48.670;9.060;2023-03-20T03:41:51;7.90;99.90
4002;DHT22;2015;48.670;9.060;2023-03-20T03:44:34;7.90;99.90
4002;DHT22;2015;48.670;9.060;2023-03-20T03:47:19;7.90;99.90
4002;DHT22;2015;48.670;9.060;2023-03-20T03:50:03;7.90;99.90
4002;DHT22;2015;48.670;9.060;2023-03-20T03:52:37;7.90;99.90
4002;DHT22;2015;48.670;9.060;2023-03-20T03:55:14;7.90;99.90
4002;DHT22;2015;48.670;9.060;2023-03-20T03:57:56;8.00;99.90
4002;DHT22;2015;48.670;9.060;2023-03-20T04:00:29;8.10;99.90
4002;DHT22;2015;48.670;9.060;2023-03-20T04:03:04;8.20;99.90
4002;DHT22;2015;48.670;9.060;2023-03-20T04:05:41;8.20;99.90
4002;DHT22;2015;48.670;9.060;2023-03-20T04:08:14;8.30;99.90
4002;DHT22;2015;48.670;9.060;2023-03-20T04:10:47;8.30;99.90
4002;DHT22;2015;48.670;9.060;2023-03-20T04:13:18;8.30;99.90
4002;DHT22;2015;48.670;9.060;2023-03-20T04:15:51;8.30;99.90
4002;DHT22;2015;48.670;9.060;2023-03-20T04:18:23;8.40;99.90
4002;DHT22;2015;48.670;9.060;2023-03-20T04:20:55;8.30;99.90
4002;DHT22;2015;48.670;9.060;2023-03-20T04:23:27;8.30;99.90
4002;DHT22;2015;48.670;9.060;2023-03-20T04:25:59;8.30;99.90
4002;DHT22;2015;48.670;9.060;2023-03-20T04:28:31;8.30;99.90
4002;DHT22;2015;48.670;9.060;2023-03-20T04:31:03;8.30;99.90
4002;DHT22;2015;48.670;9.060;2023-03-20T04:33:35;8.20;99.90
4002;DHT22;2015;48.670;9.060;2023-03-20T04:36:07;8.20;99.90
4002;DHT22;2015;48.670;9.060;2023-03-20T04:38:40;8.20;99.90
4002;DHT22;2015;48.670;9.060;2023-03-20T04:41:11;8.10;99.90
4002;DHT22;2015;48.670;9.060;2023-03-20T04:43:43;8.10;99.90
4002;DHT22;2015;48.670;9.060;2023-03-20T04:46:15;8.10;99.90
4002;DHT22;2015;48.670;9.060;2023-03-20T04:48:47;8.00;99.90
4002;DHT22;2015;48.670;9.060;2023-03-20T04:51:19;7.80;99.90
4002;DHT22;2015;48.670;9.060;2023-03-20T04:53:51;7.70;99.90
4002;DHT22;2015;48.670;9.060;2023-03-20T04:56:23;7.60;99.90
4002;DHT22;2015;48.670;9.060;2023-03-20T04:58:54;7.60;99.90
4002;DHT22;2015;48.670;9.060;2023-03-20T05:01:26;7.40;99.90
4002;DHT22;2015;48.670;9.060;2023-03-20T05:03:58;7.20;99.90
4002;DHT22;2015;48.670;9.060;2023-03-20T05:06:32;7.10;99.90
4002;DHT22;2015;48.670;9.060;2023-03-20T05:09:04;7.00;99.90
4002;DHT22;2015;48.670;9.060;2023-03-20T05:11:36;6.90;99.90
4002;DHT22;2015;48.670;9.060;2023-03-20T05:14:08;6.80;99.90
4002;DHT22;2015;48.670;9.060;2023-03-20T05:16:40;6.80;99.90
4002;DHT22;2015;48.670;9.060;2023-03-20T05:19:12;6.80;99.90
4002;DHT22;2015;48.670;9.060;2023-03-20T05:21:43;6.80;99.90
4002;DHT22;2015;48.670;9.060;2023-03-20T05:24:15;6.80;99.90
4002;DHT22;2015;48.670;9.060;2023-03-20T05:26:47;6.90;99.90
4002;DHT22;2015;48.670;9.060;2023-03-20T05:29:19;6.90;99.90
4002;DHT22;2015;48.670;9.060;2023-03-20T05:31:51;6.90;99.90
4002;DHT22;2015;48.670;9.060;2023-03-20T05:34:22;7.00;99.90
4002;DHT22;2015;48.670;9.060;2023-03-20T05:36:54;7.10;99.90
4002;DHT22;2015;48.670;9.060;2023-03-20T05:39:26;7.10;99.90
4002;DHT22;2015;48.670;9.060;2023-03-20T05:41:58;7.10;99.90
4002;DHT22;2015;48.670;9.060;2023-03-20T05:44:30;7.20;99.90
4002;DHT22;2015;48.670;9.060;2023-03-20T05:47:02;7.20;99.90
4002;DHT22;2015;48.670;9.060;2023-03-20T05:49:33;7.20;99.90
4002;DHT22;2015;48.670;9.060;2023-03-20T05:52:05;7.20;99.90
4002;DHT22;2015;48.670;9.060;2023-03-20T05:54:37;7.10;99.90
4002;DHT22;2015;48.670;9.060;2023-03-20T05:57:09;7.20;99.90
4002;DHT22;2015;48.670;9.060;2023-03-20T05:59:41;7.20;99.90
4002;DHT22;2015;48.670;9.060;2023-03-20T06:02:13;7.20;99.90
4002;DHT22;2015;48.670;9.060;2023-03-20T06:04:45;7.20;99.90
4002;DHT22;2015;48.670;9.060;2023-03-20T06:07:16;7.30;99.90
4002;DHT22;2015;48.670;9.060;2023-03-20T06:09:48;7.50;99.90
4002;DHT22;2015;48.670;9.060;2023-03-20T06:12:21;7.50;99.90
4002;DHT22;2015;48.670;9.060;2023-03-20T06:14:53;7.60;99.90
4002;DHT22;2015;48.670;9.060;2023-03-20T06:17:24;7.60;99.90
4002;DHT22;2015;48.670;9.060;2023-03-20T06:19:56;7.60;99.90
4002;DHT22;2015;48.670;9.060;2023-03-20T06:22:28;7.70;99.90
4002;DHT22;2015;48.670;9.060;2023-03-20T06:25:00;7.70;99.90
4002;DHT22;2015;48.670;9.060;2023-03-20T06:27:32;7.80;99.90
4002;DHT22;2015;48.670;9.060;2023-03-20T06:30:04;7.80;99.90
4002;DHT22;2015;48.670;9.060;2023-03-20T06:32:36;7.90;99.90
4002;DHT22;2015;48.670;9.060;2023-03-20T06:35:09;7.90;99.90
4002;DHT22;2015;48.670;9.060;2023-03-20T06:37:41;8.00;99.90
4002;DHT22;2015;48.670;9.060;2023-03-20T06:40:13;8.00;99.90
4002;DHT22;2015;48.670;9.060;2023-03-20T06:42:45;8.00;99.90
4002;DHT22;2015;48.670;9.060;2023-03-20T06:45:16;8.00;99.90
4002;DHT22;2015;48.670;9.060;2023-03-20T06:47:48;8.00;99.90
4002;DHT22;2015;48.670;9.060;2023-03-20T06:50:20;7.90;99.90
4002;DHT22;2015;48.670;9.060;2023-03-20T06:52:52;7.90;99.90
4002;DHT22;2015;48.670;9.060;2023-03-20T06:55:24;7.80;99.90
4002;DHT22;2015;48.670;9.060;2023-03-20T06:57:56;7.90;99.90
4002;DHT22;2015;48.670;9.060;2023-03-20T07:00:28;7.90;99.90
4002;DHT22;2015;48.670;9.060;2023-03-20T07:03:00;8.10;99.90
4002;DHT22;2015;48.670;9.060;2023-03-20T07:05:33;8.20;99.90
4002;DHT22;2015;48.670;9.060;2023-03-20T07:08:06;8.30;99.90
4002;DHT22;2015;48.670;9.060;2023-03-20T07:10:38;8.50;99.90
4002;DHT22;2015;48.670;9.060;2023-03-20T07:13:10;8.80;99.90
4002;DHT22;2015;48.670;9.060;2023-03-20T07:15:42;9.10;99.90
4002;DHT22;2015;48.670;9.060;2023-03-20T07:18:33;9.30;99.90
4002;DHT22;2015;48.670;9.060;2023-03-20T07:21:05;9.50;99.90
4002;DHT22;2015;48.670;9.060;2023-03-20T07:23:38;9.60;99.90
4002;DHT22;2015;48.670;9.060;2023-03-20T07:26:10;9.70;99.90
4002;DHT22;2015;48.670;9.060;2023-03-20T07:28:42;9.80;99.90
4002;DHT22;2015;48.670;9.060;2023-03-20T07:31:20;9.80;99.90
4002;DHT22;2015;48.670;9.060;2023-03-20T07:33:52;9.70;99.90
4002;DHT22;2015;48.670;9.060;2023-03-20T07:36:24;9.60;99.90
4002;DHT22;2015;48.670;9.060;2023-03-20T07:38:56;9.60;99.90
4002;DHT22;2015;48.670;9.060;2023-03-20T07:41:28;9.60;99.90
4002;DHT22;2015;48.670;9.060;2023-03-20T07:43:59;9.80;99.90
4002;DHT22;2015;48.670;9.060;2023-03-20T07:46:31;9.90;99.90
4002;DHT22;2015;48.670;9.060;2023-03-20T07:49:03;10.00;99.90
4002;DHT22;2015;48.670;9.060;2023-03-20T07:51:36;10.00;99.90
4002;DHT22;2015;48.670;9.060;2023-03-20T07:54:08;10.00;99.90
4002;DHT22;2015;48.670;9.060;2023-03-20T07:56:40;10.00;99.90
4002;DHT22;2015;48.670;9.060;2023-03-20T07:59:12;10.10;99.90
4002;DHT22;2015;48.670;9.060;2023-03-20T08:01:45;10.20;99.90
4002;DHT22;2015;48.670;9.060;2023-03-20T08:04:17;10.30;99.90
4002;DHT22;2015;48.670;9.060;2023-03-20T08:06:50;10.40;99.90
4002;DHT22;2015;48.670;9.060;2023-03-20T08:09:22;10.40;99.90
4002;DHT22;2015;48.670;9.060;2023-03-20T08:11:55;10.30;99.90
4002;DHT22;2015;48.670;9.060;2023-03-20T08:14:27;10.40;99.90
4002;DHT22;2015;48.670;9.060;2023-03-20T08:16:59;10.30;99.90
4002;DHT22;2015;48.670;9.060;2023-03-20T08:19:45;10.30;99.90
4002;DHT22;2015;48.670;9.060;2023-03-20T08:22:17;10.40;99.90
4002;DHT22;2015;48.670;9.060;2023-03-20T08:24:49;10.40;99.90
4002;DHT22;2015;48.670;9.060;2023-03-20T08:27:21;10.50;99.90
4002;DHT22;2015;48.670;9.060;2023-03-20T08:29:53;10.40;99.90
4002;DHT22;2015;48.670;9.060;2023-03-20T08:32:25;10.40;99.90
4002;DHT22;2015;48.670;9.060;2023-03-20T08:34:57;10.30;99.90
4002;DHT22;2015;48.670;9.060;2023-03-20T08:37:28;10.10;99.90
4002;DHT22;2015;48.670;9.060;2023-03-20T08:40:00;10.20;99.90
4002;DHT22;2015;48.670;9.060;2023-03-20T08:42:32;10.30;99.90
4002;DHT22;2015;48.670;9.060;2023-03-20T08:45:04;10.40;99.90
4002;DHT22;2015;48.670;9.060;2023-03-20T08:47:36;10.40;99.90
4002;DHT22;2015;48.670;9.060;2023-03-20T08:50:11;10.40;99.90
4002;DHT22;2015;48.670;9.060;2023-03-20T08:52:42;10.40;99.90
4002;DHT22;2015;48.670;9.060;2023-03-20T08:55:15;10.30;99.90
4002;DHT22;2015;48.670;9.060;2023-03-20T08:57:47;10.50;99.90
4002;DHT22;2015;48.670;9.060;2023-03-20T09:00:19;10.70;99.90
4002;DHT22;2015;48.670;9.060;2023-03-20T09:02:51;10.70;99.90
4002;DHT22;2015;48.670;9.060;2023-03-20T09:05:23;10.70;99.90
4002;DHT22;2015;48.670;9.060;2023-03-20T09:07:55;10.80;99.90
4002;DHT22;2015;48.670;9.060;2023-03-20T09:10:27;11.00;99.90
4002;DHT22;2015;48.670;9.060;2023-03-20T09:12:59;11.10;99.90
4002;DHT22;2015;48.670;9.060;2023-03-20T09:15:30;11.20;99.90
4002;DHT22;2015;48.670;9.060;2023-03-20T09:18:02;11.20;99.90
4002;DHT22;2015;48.670;9.060;2023-03-20T09:20:34;11.30;99.90
4002;DHT22;2015;48.670;9.060;2023-03-20T09:23:06;11.30;99.90
4002;DHT22;2015;48.670;9.060;2023-03-20T09:25:38;11.20;99.90
4002;DHT22;2015;48.670;9.060;2023-03-20T09:28:10;11.30;99.90
4002;DHT22;2015;48.670;9.060;2023-03-20T09:30:42;11.30;99.90
4002;DHT22;2015;48.670;9.060;2023-03-20T09:33:14;11.40;99.90
4002;DHT22;2015;48.670;9.060;2023-03-20T09:35:46;11.50;99.90
4002;DHT22;2015;48.670;9.060;2023-03-20T09:38:18;11.50;99.90
4002;DHT22;2015;48.670;9.060;2023-03-20T09:41:01;11.50;99.90
4002;DHT22;2015;48.670;9.060;2023-03-20T09:44:00;11.50;99.90
4002;DHT22;2015;48.670;9.060;2023-03-20T09:52:19;11.60;99.90
4002;DHT22;2015;48.670;9.060;2023-03-20T09:54:55;11.60;99.90
4002;DHT22;2015;48.670;9.060;2023-03-20T10:00:09;11.70;99.90
4002;DHT22;2015;48.670;9.060;2023-03-20T10:05:29;11.70;99.90
4002;DHT22;2015;48.670;9.060;2023-03-20T10:08:04;11.70;99.90
4002;DHT22;2015;48.670;9.060;2023-03-20T10:16:23;12.00;99.90
4002;DHT22;2015;48.670;9.060;2023-03-20T10:21:49;12.40;99.90
4002;DHT22;2015;48.670;9.060;2023-03-20T10:27:04;12.30;99.90
4002;DHT22;2015;48.670;9.060;2023-03-20T10:29:50;12.10;99.90
4002;DHT22;2015;48.670;9.060;2023-03-20T10:38:45;11.70;99.90
4002;DHT22;2015;48.670;9.060;2023-03-20T10:41:24;11.70;99.90
4002;DHT22;2015;48.670;9.060;2023-03-20T10:43:58;11.70;99.90
4002;DHT22;2015;48.670;9.060;2023-03-20T10:46:42;11.60;99.90
4002;DHT22;2015;48.670;9.060;2023-03-20T10:49:27;11.40;99.90
4002;DHT22;2015;48.670;9.060;2023-03-20T10:52:03;11.40;99.90
4002;DHT22;2015;48.670;9.060;2023-03-20T10:54:47;11.40;99.90
4002;DHT22;2015;48.670;9.060;2023-03-20T10:57:25;11.40;99.90
4002;DHT22;2015;48.670;9.060;2023-03-20T10:59:58;11.50;99.90
4002;DHT22;2015;48.670;9.060;2023-03-20T11:02:31;11.50;99.90
4002;DHT22;2015;48.670;9.060;2023-03-20T11:05:24;11.50;99.90
4002;DHT22;2015;48.670;9.060;2023-03-20T11:08:01;11.50;99.90
4002;DHT22;2015;48.670;9.060;2023-03-20T11:10:35;11.50;99.90
4002;DHT22;2015;48.670;9.060;2023-03-20T11:13:26;11.40;99.90
4002;DHT22;2015;48.670;9.060;2023-03-20T11:16:24;11.50;99.90
4002;DHT22;2015;48.670;9.060;2023-03-20T11:19:09;11.50;99.90
4002;DHT22;2015;48.670;9.060;2023-03-20T11:21:47;11.40;99.90
4002;DHT22;2015;48.670;9.060;2023-03-20T11:27:04;11.40;99.90
4002;DHT22;2015;48.670;9.060;2023-03-20T11:29:37;11.40;99.90
4002;DHT22;2015;48.670;9.060;2023-03-20T11:34:50;11.50;99.90
4002;DHT22;2015;48.670;9.060;2023-03-20T11:37:32;11.60;99.90
4002;DHT22;2015;48.670;9.060;2023-03-20T11:40:22;11.80;99.90
4002;DHT22;2015;48.670;9.060;2023-03-20T11:43:01;12.00;99.90
4002;DHT22;2015;48.670;9.060;2023-03-20T11:45:36;12.30;99.90
4002;DHT22;2015;48.670;9.060;2023-03-20T11:48:18;12.60;99.90
4002;DHT22;2015;48.670;9.060;2023-03-20T11:51:06;12.60;99.90
4002;DHT22;2015;48.670;9.060;2023-03-20T11:53:51;12.60;99.90
4002;DHT22;2015;48.670;9.060;2023-03-20T11:56:27;12.60;99.90
4002;DHT22;2015;48.670;9.060;2023-03-20T12:04:18;12.80;99.90
4002;DHT22;2015;48.670;9.060;2023-03-20T12:07:04;12.80;99.90
4002;DHT22;2015;48.670;9.060;2023-03-20T12:15:15;12.70;99.90
4002;DHT22;2015;48.670;9.060;2023-03-20T12:18:02;12.70;99.90
4002;DHT22;2015;48.670;9.060;2023-03-20T12:23:39;12.80;99.90
4002;DHT22;2015;48.670;9.060;2023-03-20T12:26:14;12.60;99.90
4002;DHT22;2015;48.670;9.060;2023-03-20T12:29:34;12.50;99.90
4002;DHT22;2015;48.670;9.060;2023-03-20T12:35:16;12.50;99.90
4002;DHT22;2015;48.670;9.060;2023-03-20T12:37:50;12.50;99.90
4002;DHT22;2015;48.670;9.060;2023-03-20T12:40:43;12.60;99.90
4002;DHT22;2015;48.670;9.060;2023-03-20T12:43:24;12.60;99.90
4002;DHT22;2015;48.670;9.060;2023-03-20T12:46:22;12.50;99.90
4002;DHT22;2015;48.670;9.060;2023-03-20T12:49:17;12.60;99.90
4002;DHT22;2015;48.670;9.060;2023-03-20T12:52:19;12.80;99.90
4002;DHT22;2015;48.670;9.060;2023-03-20T13:06:50;13.30;99.90
4002;DHT22;2015;48.670;9.060;2023-03-20T13:12:40;12.90;99.90
4002;DHT22;2015;48.670;9.060;2023-03-20T13:18:18;12.90;99.90
4002;DHT22;2015;48.670;9.060;2023-03-20T13:20:55;12.90;99.90
4002;DHT22;2015;48.670;9.060;2023-03-20T13:23:39;12.90;99.90
4002;DHT22;2015;48.670;9.060;2023-03-20T13:26:33;12.90;99.90
4002;DHT22;2015;48.670;9.060;2023-03-20T13:32:18;12.90;99.90
4002;DHT22;2015;48.670;9.060;2023-03-20T13:37:42;13.00;99.90
4002;DHT22;2015;48.670;9.060;2023-03-20T13:40:31;13.00;99.90
4002;DHT22;2015;48.670;9.060;2023-03-20T13:43:22;13.20;99.90
4002;DHT22;2015;48.670;9.060;2023-03-20T13:46:02;13.20;99.90
4002;DHT22;2015;48.670;9.060;2023-03-20T13:48:40;13.20;99.90
4002;DHT22;2015;48.670;9.060;2023-03-20T13:51:22;13.30;99.90
4002;DHT22;2015;48.670;9.060;2023-03-20T14:05:13;13.10;99.90
4002;DHT22;2015;48.670;9.060;2023-03-20T14:07:48;13.10;99.90
4002;DHT22;2015;48.670;9.060;2023-03-20T14:12:58;13.30;99.90
4002;DHT22;2015;48.670;9.060;2023-03-20T14:15:33;13.30;99.90
4002;DHT22;2015;48.670;9.060;2023-03-20T14:18:10;13.20;99.90
4002;DHT22;2015;48.670;9.060;2023-03-20T14:20:52;13.10;99.90
4002;DHT22;2015;48.670;9.060;2023-03-20T14:23:47;13.10;99.90
4002;DHT22;2015;48.670;9.060;2023-03-20T14:26:30;13.20;99.90
4002;DHT22;2015;48.670;9.060;2023-03-20T14:31:41;13.10;99.90
4002;DHT22;2015;48.670;9.060;2023-03-20T14:34:18;13.20;99.90
4002;DHT22;2015;48.670;9.060;2023-03-20T14:36:59;13.40;99.90
4002;DHT22;2015;48.670;9.060;2023-03-20T14:42:38;13.40;99.90
4002;DHT22;2015;48.670;9.060;2023-03-20T14:45:33;13.30;99.90
4002;DHT22;2015;48.670;9.060;2023-03-20T14:48:09;13.30;99.90
4002;DHT22;2015;48.670;9.060;2023-03-20T14:51:00;13.30;99.90
4002;DHT22;2015;48.670;9.060;2023-03-20T14:53:34;13.20;99.90
4002;DHT22;2015;48.670;9.060;2023-03-20T14:56:13;13.20;99.90
4002;DHT22;2015;48.670;9.060;2023-03-20T14:58:52;13.20;99.90
4002;DHT22;2015;48.670;9.060;2023-03-20T15:01:27;13.20;99.90
4002;DHT22;2015;48.670;9.060;2023-03-20T15:04:39;13.20;99.90
4002;DHT22;2015;48.670;9.060;2023-03-20T15:07:17;13.00;99.90
4002;DHT22;2015;48.670;9.060;2023-03-20T15:09:55;12.80;99.90
4002;DHT22;2015;48.670;9.060;2023-03-20T15:12:33;12.80;99.90
4002;DHT22;2015;48.670;9.060;2023-03-20T15:15:07;12.70;99.90
4002;DHT22;2015;48.670;9.060;2023-03-20T15:17:44;12.80;99.90
4002;DHT22;2015;48.670;9.060;2023-03-20T15:20:25;12.70;99.90
4002;DHT22;2015;48.670;9.060;2023-03-20T15:23:00;12.80;99.90
4002;DHT22;2015;48.670;9.060;2023-03-20T15:25:42;12.80;99.90
4002;DHT22;2015;48.670;9.060;2023-03-20T15:30:52;12.60;99.90
4002;DHT22;2015;48.670;9.060;2023-03-20T15:33:33;12.60;99.90
4002;DHT22;2015;48.670;9.060;2023-03-20T15:36:08;12.60;99.90
4002;DHT22;2015;48.670;9.060;2023-03-20T15:38:40;12.50;99.90
4002;DHT22;2015;48.670;9.060;2023-03-20T15:41:30;12.40;99.90
4002;DHT22;2015;48.670;9.060;2023-03-20T15:44:18;12.40;99.90
4002;DHT22;2015;48.670;9.060;2023-03-20T15:46:58;12.30;99.90
4002;DHT22;2015;48.670;9.060;2023-03-20T15:49:39;12.20;99.90
4002;DHT22;2015;48.670;9.060;2023-03-20T15:54:49;12.30;99.90
4002;DHT22;2015;48.670;9.060;2023-03-20T15:57:29;12.30;99.90
4002;DHT22;2015;48.670;9.060;2023-03-20T16:00:08;12.30;99.90
4002;DHT22;2015;48.670;9.060;2023-03-20T16:02:45;12.20;99.90
4002;DHT22;2015;48.670;9.060;2023-03-20T16:05:23;12.20;99.90
4002;DHT22;2015;48.670;9.060;2023-03-20T16:07:56;12.10;99.90
4002;DHT22;2015;48.670;9.060;2023-03-20T16:10:31;12.10;99.90
4002;DHT22;2015;48.670;9.060;2023-03-20T16:13:06;12.10;99.90
4002;DHT22;2015;48.670;9.060;2023-03-20T16:15:42;12.00;99.90
4002;DHT22;2015;48.670;9.060;2023-03-20T16:18:15;12.10;99.90
4002;DHT22;2015;48.670;9.060;2023-03-20T16:20:59;12.00;99.90
4002;DHT22;2015;48.670;9.060;2023-03-20T16:23:35;12.00;99.90
4002;DHT22;2015;48.670;9.060;2023-03-20T16:26:14;11.90;99.90
4002;DHT22;2015;48.670;9.060;2023-03-20T16:28:49;11.90;99.90
4002;DHT22;2015;48.670;9.060;2023-03-20T16:31:27;11.80;99.90
4002;DHT22;2015;48.670;9.060;2023-03-20T16:34:04;11.90;99.90
4002;DHT22;2015;48.670;9.060;2023-03-20T16:36:37;11.90;99.90
4002;DHT22;2015;48.670;9.060;2023-03-20T16:39:17;11.80;99.90
4002;DHT22;2015;48.670;9.060;2023-03-20T16:41:56;11.70;99.90
4002;DHT22;2015;48.670;9.060;2023-03-20T16:44:33;11.80;99.90
4002;DHT22;2015;48.670;9.060;2023-03-20T16:50:02;11.70;99.90
4002;DHT22;2015;48.670;9.060;2023-03-20T16:52:43;11.60;99.90
4002;DHT22;2015;48.670;9.060;2023-03-20T16:55:21;11.50;99.90
4002;DHT22;2015;48.670;9.060;2023-03-20T16:58:00;11.30;99.90
4002;DHT22;2015;48.670;9.060;2023-03-20T17:00:50;11.20;99.90
4002;DHT22;2015;48.670;9.060;2023-03-20T17:03:48;11.20;99.90
4002;DHT22;2015;48.670;9.060;2023-03-20T17:08:59;11.00;99.90
4002;DHT22;2015;48.670;9.060;2023-03-20T17:11:36;10.90;99.90
4002;DHT22;2015;48.670;9.060;2023-03-20T17:14:08;10.80;99.90
4002;DHT22;2015;48.670;9.060;2023-03-20T17:16:40;10.70;99.90
4002;DHT22;2015;48.670;9.060;2023-03-20T17:19:14;10.70;99.90
4002;DHT22;2015;48.670;9.060;2023-03-20T17:21:47;10.70;99.90
4002;DHT22;2015;48.670;9.060;2023-03-20T17:24:19;10.70;99.90
4002;DHT22;2015;48.670;9.060;2023-03-20T17:26:54;10.60;99.90
4002;DHT22;2015;48.670;9.060;2023-03-20T17:29:26;10.50;99.90
4002;DHT22;2015;48.670;9.060;2023-03-20T17:31:58;10.40;99.90
4002;DHT22;2015;48.670;9.060;2023-03-20T17:34:30;10.50;99.90
4002;DHT22;2015;48.670;9.060;2023-03-20T17:37:02;10.50;99.90
4002;DHT22;2015;48.670;9.060;2023-03-20T17:39:34;10.40;99.90
4002;DHT22;2015;48.670;9.060;2023-03-20T17:42:24;10.50;99.90
4002;DHT22;2015;48.670;9.060;2023-03-20T17:45:01;10.50;99.90
4002;DHT22;2015;48.670;9.060;2023-03-20T17:47:35;10.40;99.90
4002;DHT22;2015;48.670;9.060;2023-03-20T17:50:28;10.40;99.90
4002;DHT22;2015;48.670;9.060;2023-03-20T17:52:59;10.30;99.90
4002;DHT22;2015;48.670;9.060;2023-03-20T17:55:31;10.30;99.90
4002;DHT22;2015;48.670;9.060;2023-03-20T17:58:03;10.30;99.90
4002;DHT22;2015;48.670;9.060;2023-03-20T18:00:35;10.30;99.90
4002;DHT22;2015;48.670;9.060;2023-03-20T18:03:07;10.20;99.90
4002;DHT22;2015;48.670;9.060;2023-03-20T18:05:40;10.20;99.90
4002;DHT22;2015;48.670;9.060;2023-03-20T18:08:14;10.10;99.90
4002;DHT22;2015;48.670;9.060;2023-03-20T18:10:48;10.10;99.90
4002;DHT22;2015;48.670;9.060;2023-03-20T18:13:22;10.10;99.90
4002;DHT22;2015;48.670;9.060;2023-03-20T18:15:56;10.10;99.90
4002;DHT22;2015;48.670;9.060;2023-03-20T18:18:28;10.10;99.90
4002;DHT22;2015;48.670;9.060;2023-03-20T18:21:00;10.10;99.90
4002;DHT22;2015;48.670;9.060;2023-03-20T18:23:32;10.10;99.90
4002;DHT22;2015;48.670;9.060;2023-03-20T18:26:04;10.10;99.90
4002;DHT22;2015;48.670;9.060;2023-03-20T18:28:40;10.00;99.90
4002;DHT22;2015;48.670;9.060;2023-03-20T18:31:12;10.00;99.90
4002;DHT22;2015;48.670;9.060;2023-03-20T18:33:47;10.10;99.90
4002;DHT22;2015;48.670;9.060;2023-03-20T18:36:21;10.20;99.90
4002;DHT22;2015;48.670;9.060;2023-03-20T18:38:54;10.20;99.90
4002;DHT22;2015;48.670;9.060;2023-03-20T18:41:25;10.10;99.90
4002;DHT22;2015;48.670;9.060;2023-03-20T18:43:57;10.00;99.90
4002;DHT22;2015;48.670;9.060;2023-03-20T18:46:29;9.90;99.90
4002;DHT22;2015;48.670;9.060;2023-03-20T18:49:01;9.90;99.90
4002;DHT22;2015;48.670;9.060;2023-03-20T18:51:33;9.80;99.90
4002;DHT22;2015;48.670;9.060;2023-03-20T18:54:05;9.80;99.90
4002;DHT22;2015;48.670;9.060;2023-03-20T18:56:37;9.90;99.90
4002;DHT22;2015;48.670;9.060;2023-03-20T18:59:11;10.00;99.90
4002;DHT22;2015;48.670;9.060;2023-03-20T19:01:43;9.90;99.90
4002;DHT22;2015;48.670;9.060;2023-03-20T19:04:15;9.80;99.90
4002;DHT22;2015;48.670;9.060;2023-03-20T19:06:47;9.70;99.90
4002;DHT22;2015;48.670;9.060;2023-03-20T19:09:19;9.70;99.90
4002;DHT22;2015;48.670;9.060;2023-03-20T19:11:52;9.60;99.90
4002;DHT22;2015;48.670;9.060;2023-03-20T19:14:23;9.60;99.90
4002;DHT22;2015;48.670;9.060;2023-03-20T19:16:56;9.60;99.90
4002;DHT22;2015;48.670;9.060;2023-03-20T19:19:28;9.50;99.90